Live aus Altenrhein
LIVE
LSZR 230420Z VRB02KT 9999 SCT070 12/10 Q1019 NOSIG RMK A

People´s Info Center:

Öffnungszeiten Mo-Fr, 8-18 Uhr

 

info@peoples.ch

 
Aus Österreich:

T: +43 (0)5572 203 610

 

Aus CH / LI / DE:

T: +41 (0)71 858 51 60

 

ACMI & Charter request

Embraer170-Jet, 76 seats

 

Short term availability / ACMI

 

24h/7d ACMI up to 76 seats

 

If you have any queries or would like further information then please do not hesitate to get in touch with our team:

 

acmi@peoples.ch or calling +41 71 858 56 10 (24h/7d)

Long term availability

 

New route evaluations, private or business Charter up to 76 seats

 

If you have any charter queries or would like further information then please do not hesitate to get in touch with Thomas Krutzler, CCO:

 

charter@peoples.ch or calling +43 664 834 34 80